createdAt,value
2023-03-11T00:00:31.850Z,96992.75
2023-03-11T00:03:02.082Z,96997.19
2023-03-11T00:05:32.168Z,96992.06
2023-03-11T00:08:01.140Z,96993.53
2023-03-11T00:10:37.230Z,96999.28
2023-03-11T00:13:05.834Z,96986.97
2023-03-11T00:15:33.971Z,96995.94
2023-03-11T00:18:01.507Z,96996.56
2023-03-11T00:20:38.129Z,96987.72
2023-03-11T00:23:05.943Z,96984.97
2023-03-11T00:25:34.879Z,96981.00
2023-03-11T00:28:02.429Z,96985.06
2023-03-11T00:30:30.083Z,96987.03
2023-03-11T00:32:58.509Z,96983.75
2023-03-11T00:35:28.764Z,96990.25
2023-03-11T00:37:58.260Z,96993.31
2023-03-11T00:40:28.114Z,96993.38
2023-03-11T00:42:55.932Z,96992.34
2023-03-11T00:45:23.685Z,96996.66
2023-03-11T00:47:52.772Z,97010.16
2023-03-11T00:50:23.665Z,96997.69
2023-03-11T00:52:51.678Z,97003.28
2023-03-11T00:55:22.766Z,97020.16
2023-03-11T00:58:00.140Z,97016.22
2023-03-11T01:00:29.377Z,97015.03
2023-03-11T01:02:57.297Z,97016.03
2023-03-11T01:05:28.002Z,97004.78
2023-03-11T01:07:56.016Z,97006.94
2023-03-11T01:10:23.904Z,96996.38
2023-03-11T01:12:51.950Z,97012.09
2023-03-11T01:15:29.348Z,97017.41
2023-03-11T01:17:56.875Z,96996.13
2023-03-11T01:20:24.704Z,96993.28
2023-03-11T01:22:52.203Z,96995.69
2023-03-11T01:25:20.983Z,96995.88
2023-03-11T01:27:48.775Z,97002.50
2023-03-11T01:30:19.175Z,96993.19
2023-03-11T01:32:46.850Z,97000.75
2023-03-11T01:35:17.927Z,97000.16
2023-03-11T01:37:46.270Z,96990.69
2023-03-11T01:40:29.926Z,96993.44
2023-03-11T01:42:59.463Z,97000.97
2023-03-11T01:45:53.584Z,96996.06
2023-03-11T01:48:22.028Z,96986.38
2023-03-11T01:50:50.176Z,97000.31
2023-03-11T01:53:18.201Z,96992.00
2023-03-11T01:55:47.318Z,96996.81
2023-03-11T01:58:21.573Z,97004.09
2023-03-11T02:00:50.035Z,97012.47
2023-03-11T02:03:21.955Z,97014.47
2023-03-11T02:05:50.532Z,97008.13
2023-03-11T02:08:18.598Z,97015.03
2023-03-11T02:10:47.053Z,97007.78
2023-03-11T02:13:15.562Z,97013.56
2023-03-11T02:15:43.315Z,97009.38
2023-03-11T02:18:14.701Z,97004.19
2023-03-11T02:20:49.591Z,96995.69
2023-03-11T02:23:19.137Z,96995.88
2023-03-11T02:25:54.839Z,97002.38
2023-03-11T02:28:23.502Z,96991.50
2023-03-11T02:30:51.096Z,96997.56
2023-03-11T02:33:19.856Z,96995.03
2023-03-11T02:35:49.083Z,96991.72
2023-03-11T02:38:16.840Z,96990.75
2023-03-11T02:40:58.694Z,97002.19
2023-03-11T02:43:46.843Z,96998.37
2023-03-11T02:46:15.163Z,96988.91
2023-03-11T02:48:43.622Z,96983.97
2023-03-11T02:51:12.255Z,97000.31
2023-03-11T02:53:45.360Z,97002.72
2023-03-11T02:56:14.185Z,97016.91
2023-03-11T02:58:41.641Z,97015.28
2023-03-11T03:01:10.237Z,97021.06
2023-03-11T03:03:38.269Z,97019.47
2023-03-11T03:06:06.538Z,97021.91
2023-03-11T03:08:34.016Z,97010.16
2023-03-11T03:11:03.316Z,97014.31
2023-03-11T03:13:32.322Z,97033.66
2023-03-11T03:16:00.659Z,97025.81
2023-03-11T03:18:28.955Z,97032.25
2023-03-11T03:20:56.573Z,97052.47
2023-03-11T03:23:24.152Z,97046.22
2023-03-11T03:25:51.920Z,97055.59
2023-03-11T03:28:19.884Z,97050.81
2023-03-11T03:30:47.885Z,97063.19
2023-03-11T03:33:15.750Z,97044.97
2023-03-11T03:35:45.121Z,97041.38
2023-03-11T03:38:13.150Z,97038.75
2023-03-11T03:40:46.154Z,97057.25
2023-03-11T03:43:14.657Z,97039.53
2023-03-11T03:45:44.098Z,97035.69
2023-03-11T03:48:11.605Z,97035.56
2023-03-11T03:50:40.394Z,97036.37
2023-03-11T03:53:08.381Z,97053.34
2023-03-11T03:55:36.026Z,97045.59
2023-03-11T03:58:04.745Z,97027.56
2023-03-11T04:00:32.729Z,97031.13
2023-03-11T04:03:01.061Z,97034.69
2023-03-11T04:05:29.326Z,97046.72
2023-03-11T04:07:56.983Z,97062.34
2023-03-11T04:10:24.759Z,97055.22
2023-03-11T04:12:52.413Z,97048.22
2023-03-11T04:15:20.172Z,97067.47
2023-03-11T04:17:48.046Z,97064.22
2023-03-11T04:20:15.653Z,97069.38
2023-03-11T04:22:43.827Z,97071.31
2023-03-11T04:25:11.725Z,97069.31
2023-03-11T04:27:42.627Z,97082.91
2023-03-11T04:30:10.992Z,97079.84
2023-03-11T04:32:38.768Z,97066.00
2023-03-11T04:35:06.643Z,97064.38
2023-03-11T04:37:34.284Z,97076.94
2023-03-11T04:40:02.264Z,97073.22
2023-03-11T04:42:30.896Z,97063.72
2023-03-11T04:44:58.398Z,97067.19
2023-03-11T04:47:26.485Z,97061.47
2023-03-11T04:49:56.131Z,97078.41
2023-03-11T04:52:24.402Z,97027.16
2023-03-11T04:54:52.266Z,97074.25
2023-03-11T04:57:19.841Z,97064.31
2023-03-11T04:59:48.066Z,97082.28
2023-03-11T05:02:16.010Z,97052.31
2023-03-11T05:04:45.738Z,97065.44
2023-03-11T05:07:15.833Z,97055.91
2023-03-11T05:09:44.027Z,97051.94
2023-03-11T05:12:12.766Z,97060.38
2023-03-11T05:14:40.879Z,97073.53
2023-03-11T05:17:10.096Z,97094.91
2023-03-11T05:19:38.112Z,97065.81
2023-03-11T05:22:06.078Z,97082.19
2023-03-11T05:24:34.281Z,97101.12
2023-03-11T05:27:02.213Z,97096.03
2023-03-11T05:29:30.793Z,97113.94
2023-03-11T05:31:59.370Z,97110.72
2023-03-11T05:34:26.883Z,97127.03
2023-03-11T05:36:54.336Z,97127.00
2023-03-11T05:39:22.909Z,97132.09
2023-03-11T05:41:51.735Z,97148.44
2023-03-11T05:44:19.626Z,97151.88
2023-03-11T05:46:47.443Z,97151.00
2023-03-11T05:49:14.997Z,97155.44
2023-03-11T05:51:42.519Z,97157.91
2023-03-11T05:54:15.023Z,97153.53
2023-03-11T05:56:44.549Z,97155.41
2023-03-11T05:59:16.480Z,97139.12
2023-03-11T06:01:45.561Z,97147.56
2023-03-11T06:04:13.682Z,97171.72
2023-03-11T06:06:41.673Z,97150.22
2023-03-11T06:09:13.854Z,97177.72
2023-03-11T06:11:42.257Z,97177.66
2023-03-11T06:14:12.506Z,97159.72
2023-03-11T06:16:40.754Z,97169.16
2023-03-11T06:19:09.505Z,97187.06
2023-03-11T06:21:37.786Z,97206.03
2023-03-11T06:24:05.688Z,97210.28
2023-03-11T06:26:33.452Z,97211.19
2023-03-11T06:29:01.371Z,97220.59
2023-03-11T06:31:29.853Z,97230.88
2023-03-11T06:33:59.244Z,97232.63
2023-03-11T06:36:27.207Z,97226.63
2023-03-11T06:38:54.926Z,97230.88
2023-03-11T06:41:23.822Z,97255.75
2023-03-11T06:43:51.464Z,97256.59
2023-03-11T06:46:21.677Z,97266.91
2023-03-11T06:48:52.347Z,97268.62
2023-03-11T06:51:21.220Z,97275.50
2023-03-11T06:53:51.833Z,97283.22
2023-03-11T06:56:21.196Z,97262.63
2023-03-11T06:58:50.015Z,97275.50
2023-03-11T07:01:20.382Z,97252.31
2023-03-11T07:03:49.391Z,97277.22
2023-03-11T07:06:22.667Z,97272.91
2023-03-11T07:08:51.688Z,97269.50
2023-03-11T07:11:24.325Z,97273.78
2023-03-11T07:13:53.653Z,97278.94
2023-03-11T07:16:26.913Z,97285.81
2023-03-11T07:18:56.699Z,97284.06
2023-03-11T07:21:24.569Z,97278.06
2023-03-11T07:23:57.098Z,97322.66
2023-03-11T07:26:25.702Z,97300.38
2023-03-11T07:28:54.661Z,97308.88
2023-03-11T07:31:24.748Z,97308.94
2023-03-11T07:33:53.095Z,97308.09
2023-03-11T07:36:22.992Z,97300.38
2023-03-11T07:38:59.546Z,97274.59
2023-03-11T07:41:27.380Z,97280.56
2023-03-11T07:43:56.216Z,97260.88
2023-03-11T07:46:25.072Z,97272.03
2023-03-11T07:48:53.059Z,97278.03
2023-03-11T07:51:25.864Z,97290.06
2023-03-11T07:53:54.963Z,97308.03
2023-03-11T07:56:25.940Z,97286.63
2023-03-11T07:58:53.793Z,97308.97
2023-03-11T08:01:23.158Z,97299.50
2023-03-11T08:03:56.857Z,97262.63
2023-03-11T08:06:27.506Z,97284.06
2023-03-11T08:08:55.228Z,97261.78
2023-03-11T08:11:23.163Z,97279.78
2023-03-11T08:13:51.833Z,97276.34
2023-03-11T08:16:21.347Z,97284.09
2023-03-11T08:18:49.849Z,97333.81
2023-03-11T08:21:19.903Z,97337.25
2023-03-11T08:23:47.640Z,97332.13
2023-03-11T08:26:17.652Z,97285.78
2023-03-11T08:28:45.367Z,97313.25
2023-03-11T08:31:15.609Z,97282.38
2023-03-11T08:33:44.110Z,97287.50
2023-03-11T08:36:17.339Z,97275.50
2023-03-11T08:38:45.109Z,97260.00
2023-03-11T08:41:12.951Z,97234.19
2023-03-11T08:43:41.364Z,97223.06
2023-03-11T08:46:09.255Z,97198.13
2023-03-11T08:48:37.348Z,97222.16
2023-03-11T08:51:12.466Z,97226.25
2023-03-11T08:53:39.902Z,97240.06
2023-03-11T08:56:08.191Z,97297.63
2023-03-11T08:58:35.986Z,97289.78
2023-03-11T09:01:14.125Z,97285.53
2023-03-11T09:03:41.601Z,97258.09
2023-03-11T09:06:12.292Z,97286.47
2023-03-11T09:08:39.985Z,97334.41
2023-03-11T09:11:08.210Z,97326.59
2023-03-11T09:13:36.117Z,97317.72
2023-03-11T09:16:05.996Z,97340.34
2023-03-11T09:18:33.449Z,97345.41
2023-03-11T09:21:01.237Z,97347.28
2023-03-11T09:23:30.179Z,97364.44
2023-03-11T09:25:57.590Z,97408.25
2023-03-11T09:28:24.932Z,97391.16
2023-03-11T09:30:52.625Z,97385.94
2023-03-11T09:33:20.077Z,97392.97
2023-03-11T09:35:47.794Z,97383.56
2023-03-11T09:38:16.025Z,97400.72
2023-03-11T09:41:02.843Z,97394.72
2023-03-11T09:43:43.138Z,97394.72
2023-03-11T09:46:26.661Z,97409.31
2023-03-11T09:49:01.982Z,97389.56
2023-03-11T09:51:36.598Z,97411.06
2023-03-11T09:54:09.526Z,97399.03
2023-03-11T09:56:40.012Z,97399.00
2023-03-11T09:59:19.021Z,97394.75
2023-03-11T10:01:50.695Z,97405.03
2023-03-11T10:04:34.813Z,97404.91
2023-03-11T10:07:03.338Z,97412.66
2023-03-11T10:09:57.050Z,97410.97
2023-03-11T10:12:43.769Z,97402.44
2023-03-11T10:15:12.106Z,97396.47
2023-03-11T10:17:58.987Z,97397.31
2023-03-11T10:20:49.830Z,97403.34
2023-03-11T10:23:37.961Z,97406.75
2023-03-11T10:26:16.268Z,97406.78
2023-03-11T10:28:47.794Z,97427.34
2023-03-11T10:31:31.444Z,97447.06
2023-03-11T10:34:15.509Z,97479.72
2023-03-11T10:37:01.960Z,97469.41
2023-03-11T10:39:31.685Z,97480.47
2023-03-11T10:42:06.121Z,97478.78
2023-03-11T10:44:39.678Z,97483.03
2023-03-11T10:47:14.511Z,97483.09
2023-03-11T10:49:42.250Z,97492.53
2023-03-11T10:52:09.650Z,97478.03
2023-03-11T10:54:48.796Z,97468.56
2023-03-11T10:57:28.248Z,97472.84
2023-03-11T11:00:00.313Z,97477.03
2023-03-11T11:02:38.607Z,97481.38
2023-03-11T11:05:06.131Z,97477.97
2023-03-11T11:07:36.681Z,97471.75
2023-03-11T11:10:23.677Z,97481.38
2023-03-11T11:12:57.704Z,97489.06
2023-03-11T11:15:36.624Z,97497.66
2023-03-11T11:18:18.483Z,97507.13
2023-03-11T11:21:37.566Z,97507.06
2023-03-11T11:24:18.483Z,97504.53
2023-03-11T11:27:05.058Z,97514.03
2023-03-11T11:29:34.715Z,97505.47
2023-03-11T11:32:20.803Z,97515.72
2023-03-11T11:34:56.968Z,97513.81
2023-03-11T11:37:27.028Z,97514.00
2023-03-11T11:40:01.954Z,97518.28
2023-03-11T11:42:31.223Z,97518.34
2023-03-11T11:45:24.741Z,97545.88
2023-03-11T11:47:59.454Z,97545.00
2023-03-11T11:50:33.116Z,97553.59
2023-03-11T11:53:09.329Z,97544.16
2023-03-11T11:55:41.836Z,97553.56
2023-03-11T11:58:12.926Z,97551.00
2023-03-11T12:00:53.152Z,97543.25
2023-03-11T12:03:50.034Z,97533.84
2023-03-11T12:06:37.209Z,97551.88
2023-03-11T12:09:16.681Z,97541.56
2023-03-11T12:11:50.229Z,97541.56
2023-03-11T12:14:46.443Z,97527.84
2023-03-11T12:17:14.857Z,97536.44
2023-03-11T12:19:52.209Z,97523.44
2023-03-11T12:22:38.515Z,97532.91
2023-03-11T12:25:29.957Z,97517.44
2023-03-11T12:28:04.841Z,97533.00
2023-03-11T12:30:36.987Z,97533.84
2023-03-11T12:33:12.775Z,97520.09
2023-03-11T12:35:40.426Z,97502.91
2023-03-11T12:38:18.972Z,97510.63
2023-03-11T12:40:58.749Z,97507.19
2023-03-11T12:43:35.213Z,97524.37
2023-03-11T12:46:05.908Z,97516.63
2023-03-11T12:48:50.461Z,97529.50
2023-03-11T12:51:27.358Z,97523.53
2023-03-11T12:53:55.394Z,97533.81
2023-03-11T12:56:23.450Z,97530.41
2023-03-11T12:59:06.099Z,97543.28
2023-03-11T13:01:49.154Z,97556.16
2023-03-11T13:04:31.075Z,97567.34
2023-03-11T13:07:08.712Z,97581.06
2023-03-11T13:09:36.867Z,97579.34
2023-03-11T13:12:40.599Z,97593.09
2023-03-11T13:15:20.367Z,97583.63
2023-03-11T13:18:13.030Z,97583.66
2023-03-11T13:20:43.547Z,97595.69
2023-03-11T13:23:14.570Z,97613.75
2023-03-11T13:25:48.680Z,97615.50
2023-03-11T13:28:45.401Z,97624.03
2023-03-11T13:31:16.290Z,97620.63
2023-03-11T13:34:16.147Z,97619.72
2023-03-11T13:37:21.359Z,97630.97
2023-03-11T13:40:00.878Z,97633.53
2023-03-11T13:42:32.795Z,97652.41
2023-03-11T13:45:01.376Z,97652.38
2023-03-11T13:47:30.466Z,97671.19
2023-03-11T13:50:09.358Z,97672.97
2023-03-11T13:52:44.886Z,97670.34
2023-03-11T13:55:22.549Z,97688.34
2023-03-11T13:57:53.034Z,97678.97
2023-03-11T14:00:24.467Z,97694.53
2023-03-11T14:03:02.943Z,97703.88
2023-03-11T14:05:32.814Z,97713.28
2023-03-11T14:08:27.382Z,97703.12
2023-03-11T14:11:16.426Z,97712.56
2023-03-11T14:13:50.985Z,97707.37
2023-03-11T14:16:23.543Z,97724.53
2023-03-11T14:19:08.796Z,97711.62
2023-03-11T14:21:36.992Z,97740.66
2023-03-11T14:24:05.638Z,97765.53
2023-03-11T14:26:35.840Z,97746.69
2023-03-11T14:29:10.854Z,97755.16
2023-03-11T14:31:41.083Z,97758.50
2023-03-11T14:34:25.928Z,97792.19
2023-03-11T14:37:01.068Z,97742.41
2023-03-11T14:39:40.122Z,97758.69
2023-03-11T14:42:37.101Z,97752.69
2023-03-11T14:45:10.992Z,97750.88
2023-03-11T14:47:42.155Z,97751.69
2023-03-11T14:50:18.702Z,97766.34
2023-03-11T14:52:50.933Z,97778.25
2023-03-11T14:55:27.764Z,97772.34
2023-03-11T14:58:00.357Z,97785.16
2023-03-11T15:00:31.936Z,97791.94
2023-03-11T15:03:14.182Z,97773.88
2023-03-11T15:05:48.837Z,97789.50
2023-03-11T15:08:19.746Z,97797.75
2023-03-11T15:11:25.169Z,97811.19
2023-03-11T15:13:53.894Z,97825.00
2023-03-11T15:16:30.332Z,97805.91
2023-03-11T15:19:31.248Z,97831.53
2023-03-11T15:22:17.777Z,97817.94
2023-03-11T15:24:59.260Z,97835.16
2023-03-11T15:27:32.964Z,97834.06
2023-03-11T15:30:02.078Z,97839.53
2023-03-11T15:32:29.512Z,97847.28
2023-03-11T15:35:02.488Z,97861.13
2023-03-11T15:37:31.073Z,97856.81
2023-03-11T15:40:12.228Z,97863.53
2023-03-11T15:42:40.215Z,97848.03
2023-03-11T15:45:20.623Z,97864.44
2023-03-11T15:47:49.546Z,97868.94
2023-03-11T15:50:40.198Z,97876.28
2023-03-11T15:53:14.897Z,97882.22
2023-03-11T15:55:42.694Z,97883.84
2023-03-11T15:58:12.729Z,97906.69
2023-03-11T16:00:43.332Z,97890.97
2023-03-11T16:03:11.298Z,97890.97
2023-03-11T16:05:40.403Z,97909.38
2023-03-11T16:08:08.496Z,97908.56
2023-03-11T16:10:36.729Z,97904.34
2023-03-11T16:13:05.133Z,97923.94
2023-03-11T16:15:35.985Z,97912.72
2023-03-11T16:18:06.365Z,97940.47
2023-03-11T16:20:42.370Z,97921.47
2023-03-11T16:23:19.635Z,97942.19
2023-03-11T16:25:48.396Z,97934.31
2023-03-11T16:28:19.470Z,97931.31
2023-03-11T16:30:50.103Z,97942.87
2023-03-11T16:33:18.523Z,97938.94
2023-03-11T16:35:47.143Z,97940.91
2023-03-11T16:38:17.728Z,97948.38
2023-03-11T16:40:50.418Z,97941.53
2023-03-11T16:43:18.510Z,97952.72
2023-03-11T16:45:46.756Z,97954.19
2023-03-11T16:48:15.500Z,97968.53
2023-03-11T16:50:43.890Z,97962.75
2023-03-11T16:53:14.527Z,97970.56
2023-03-11T16:55:42.962Z,97975.47
2023-03-11T16:58:10.934Z,97983.97
2023-03-11T17:00:39.384Z,97984.44
2023-03-11T17:03:07.627Z,98001.75
2023-03-11T17:05:35.773Z,98014.38
2023-03-11T17:08:05.565Z,98020.25
2023-03-11T17:10:38.492Z,98023.41
2023-03-11T17:13:07.852Z,98022.69
2023-03-11T17:15:36.336Z,98037.97
2023-03-11T17:18:07.899Z,98028.47
2023-03-11T17:20:41.911Z,98049.13
2023-03-11T17:23:12.522Z,98052.47
2023-03-11T17:25:42.250Z,98047.66
2023-03-11T17:28:10.580Z,98054.44
2023-03-11T17:30:45.427Z,98070.47
2023-03-11T17:33:14.960Z,98074.47
2023-03-11T17:35:43.305Z,98075.47
2023-03-11T17:38:11.456Z,98087.50
2023-03-11T17:40:40.080Z,98096.34
2023-03-11T17:43:07.984Z,98101.16
2023-03-11T17:45:39.070Z,98110.81
2023-03-11T17:48:07.979Z,98108.53
2023-03-11T17:50:40.013Z,98116.22
2023-03-11T17:53:09.455Z,98121.97
2023-03-11T17:55:40.337Z,98115.91
2023-03-11T17:58:09.144Z,98116.03
2023-03-11T18:00:39.188Z,98120.81
2023-03-11T18:03:08.197Z,98126.31
2023-03-11T18:05:38.471Z,98125.81
2023-03-11T18:08:07.255Z,98123.19
2023-03-11T18:10:38.700Z,98125.19
2023-03-11T18:13:07.018Z,98137.03
2023-03-11T18:15:36.656Z,98138.06
2023-03-11T18:18:05.055Z,98138.91
2023-03-11T18:20:33.230Z,98161.19
2023-03-11T18:23:02.175Z,98156.56
2023-03-11T18:25:30.565Z,98150.50
2023-03-11T18:27:58.745Z,98148.00
2023-03-11T18:30:27.615Z,98159.28
2023-03-11T18:32:56.528Z,98156.75
2023-03-11T18:35:33.900Z,98158.13
2023-03-11T18:38:02.390Z,98171.97
2023-03-11T18:40:30.380Z,98168.22
2023-03-11T18:42:58.732Z,98176.25
2023-03-11T18:45:27.161Z,98182.56
2023-03-11T18:47:56.050Z,98183.78
2023-03-11T18:50:24.344Z,98173.88
2023-03-11T18:52:53.036Z,98170.19
2023-03-11T18:55:21.866Z,98197.63
2023-03-11T18:57:51.098Z,98180.69
2023-03-11T19:00:23.939Z,98184.19
2023-03-11T19:02:58.980Z,98200.13
2023-03-11T19:05:28.188Z,98201.41
2023-03-11T19:07:57.398Z,98201.22
2023-03-11T19:10:25.963Z,98208.47
2023-03-11T19:12:54.728Z,98227.66
2023-03-11T19:15:23.573Z,98216.59
2023-03-11T19:18:05.762Z,98232.34
2023-03-11T19:20:36.702Z,98236.88
2023-03-11T19:23:06.254Z,98231.13
2023-03-11T19:25:36.210Z,98220.16
2023-03-11T19:28:06.742Z,98240.37
2023-03-11T19:30:34.946Z,98242.38
2023-03-11T19:33:03.866Z,98233.72
2023-03-11T19:35:33.301Z,98232.31
2023-03-11T19:38:02.045Z,98247.47
2023-03-11T19:40:31.924Z,98236.94
2023-03-11T19:43:01.390Z,98237.38
2023-03-11T19:45:31.466Z,98232.97
2023-03-11T19:48:01.036Z,98243.72
2023-03-11T19:50:29.968Z,98239.72
2023-03-11T19:52:58.539Z,98236.97
2023-03-11T19:55:27.590Z,98228.91
2023-03-11T19:57:56.817Z,98217.22
2023-03-11T20:00:26.493Z,98215.91
2023-03-11T20:02:57.220Z,98212.66
2023-03-11T20:05:25.661Z,98207.28
2023-03-11T20:07:53.850Z,98194.94
2023-03-11T20:10:22.963Z,98217.59
2023-03-11T20:13:01.784Z,98220.81
2023-03-11T20:15:30.747Z,98230.59
2023-03-11T20:18:01.339Z,98237.50
2023-03-11T20:20:30.876Z,98248.37
2023-03-11T20:23:00.796Z,98244.38
2023-03-11T20:25:32.669Z,98250.28
2023-03-11T20:28:01.361Z,98252.81
2023-03-11T20:30:31.071Z,98255.53
2023-03-11T20:33:00.940Z,98257.84
2023-03-11T20:35:29.468Z,98259.91
2023-03-11T20:37:58.913Z,98251.31
2023-03-11T20:40:26.966Z,98261.66
2023-03-11T20:42:55.556Z,98262.34
2023-03-11T20:45:24.076Z,98261.88
2023-03-11T20:47:54.211Z,98270.56
2023-03-11T20:50:23.916Z,98271.75
2023-03-11T20:52:52.451Z,98274.41
2023-03-11T20:55:23.556Z,98275.22
2023-03-11T20:57:54.471Z,98280.19
2023-03-11T21:00:23.089Z,98278.19
2023-03-11T21:02:52.232Z,98283.59
2023-03-11T21:05:20.456Z,98295.13
2023-03-11T21:07:49.280Z,98300.22
2023-03-11T21:10:18.046Z,98306.00
2023-03-11T21:12:45.885Z,98303.91
2023-03-11T21:15:13.464Z,98304.16
2023-03-11T21:17:41.649Z,98312.72
2023-03-11T21:20:10.206Z,98314.38
2023-03-11T21:22:39.490Z,98312.84
2023-03-11T21:25:11.449Z,98327.75
2023-03-11T21:27:40.207Z,98318.69
2023-03-11T21:30:08.817Z,98319.44
2023-03-11T21:32:36.363Z,98338.22
2023-03-11T21:35:04.576Z,98337.63
2023-03-11T21:37:32.923Z,98339.91
2023-03-11T21:40:01.635Z,98339.41
2023-03-11T21:42:30.173Z,98339.31
2023-03-11T21:44:58.016Z,98349.84
2023-03-11T21:47:25.836Z,98348.78
2023-03-11T21:49:53.323Z,98356.03
2023-03-11T21:52:21.053Z,98346.34
2023-03-11T21:54:48.709Z,98348.91
2023-03-11T21:57:16.228Z,98356.03
2023-03-11T21:59:43.988Z,98357.19
2023-03-11T22:02:16.380Z,98345.09
2023-03-11T22:04:44.183Z,98359.41
2023-03-11T22:07:11.630Z,98357.91
2023-03-11T22:09:39.165Z,98348.69
2023-03-11T22:12:07.104Z,98355.81
2023-03-11T22:14:34.527Z,98362.06
2023-03-11T22:17:02.084Z,98368.06
2023-03-11T22:19:29.881Z,98374.66
2023-03-11T22:21:57.410Z,98363.50
2023-03-11T22:24:24.816Z,98372.16
2023-03-11T22:26:52.828Z,98374.69
2023-03-11T22:29:20.262Z,98368.34
2023-03-11T22:31:47.650Z,98371.72
2023-03-11T22:34:15.362Z,98378.47
2023-03-11T22:36:42.745Z,98390.84
2023-03-11T22:39:10.145Z,98404.00
2023-03-11T22:41:37.860Z,98410.75
2023-03-11T22:44:05.653Z,98400.00
2023-03-11T22:46:33.074Z,98420.00
2023-03-11T22:49:00.810Z,98429.84
2023-03-11T22:51:28.213Z,98426.19
2023-03-11T22:53:55.582Z,98427.72
2023-03-11T22:56:23.288Z,98444.72
2023-03-11T22:58:50.671Z,98450.56
2023-03-11T23:01:18.288Z,98450.38
2023-03-11T23:03:46.111Z,98455.16
2023-03-11T23:06:16.592Z,98456.41
2023-03-11T23:08:44.845Z,98458.88
2023-03-11T23:11:15.087Z,98454.59
2023-03-11T23:13:43.378Z,98459.38
2023-03-11T23:16:14.195Z,98457.53
2023-03-11T23:18:43.379Z,98458.81
2023-03-11T23:21:17.468Z,98451.81
2023-03-11T23:23:46.145Z,98453.84
2023-03-11T23:26:13.906Z,98460.00
2023-03-11T23:28:41.858Z,98454.00
2023-03-11T23:31:11.264Z,98456.94
2023-03-11T23:33:38.953Z,98465.97
2023-03-11T23:36:09.649Z,98473.81
2023-03-11T23:38:37.381Z,98478.97
2023-03-11T23:41:09.890Z,98480.31
2023-03-11T23:43:37.987Z,98486.59
2023-03-11T23:46:08.001Z,98492.13
2023-03-11T23:48:35.518Z,98488.38
2023-03-11T23:51:04.695Z,98486.41
2023-03-11T23:53:32.519Z,98490.28
2023-03-11T23:56:00.030Z,98483.84
2023-03-11T23:58:27.743Z,98488.31
